Aérodrome :







RETROUVEZ-NOUS SUR...

 
LOGIN :

S'inscrire | Disclaimer

   EN    FR    IT 

 









Légende :    VFR   VFR Marginal   IFR   IFR Intensif   IFR Très Intensif
Visi : 
Plafond : 
>= 8 km
>= 3000ft
5 à 8 km
1000 à 3000 ft
1500m à 5 km
500 à 1000 ft
800 à 1500m
200 à 500 ft
< 800m
< 200 ft
Symboles :   Orages  Brouillard  Fortes neiges  Fortes précipitations  Vent > 20 kt






- Altitude de l'aérodrome : 40 ft
- Code IATA : YRF


CYCA - Cartwright

DERNIER METAR :
  • 242200Z AUTO VRB02KT 9SM BKN055 BKN067 OVC080 M11/M20 A3018 RMK SLP222

METARs EXPIRÉS :
  • 242100Z AUTO 10008KT 9SM SCT050 SCT070 BKN130 BKN150 M11/M20 A3018 RMK SLP224
  • 242000Z AUTO 10010KT 9SM FEW180 M10/M22 A3020 RMK SLP230

TAF TAF CYCA
Valide du 24 à 20h jusqu'au 25 à 08h UTC


241941Z 2420/2508 15008KT P6SM FEW015 BKN140
FM242300 12010KT P6SM -SN SCT015 OVC060
TEMPO 2423/2503 2SM -SN BKN015 OVC060
FM250300 VRB03KT 2SM -SN OVC015
TEMPO 2503/2508 6SM -SN OVC025 RMK FCST BASED ON AUTO OBS. NXT FCST BY 250200Z



MET'MAP, la Météo Aéronautique d'un coup d'oeil ! - Copyright ORBIFLY Décembre 2007 - Disclaimer

ORBIFLY MET'MAP TEAM :

Programmation & Développement : Alexandra Zaïnal
Sur une idée originale de : Baudouin d'Aumeries
Assistance à la programmation : Marc-Olivier Méhu
Soutien technique & logistique : Manuel Goepfert

Contact : metmap@orbifly.com




SOURCES & CREDITS :

   NOAA